createdAt,value
2022-12-26T00:01:26.686Z,43.43
2022-12-26T00:03:55.207Z,43.38
2022-12-26T00:06:27.046Z,43.27
2022-12-26T00:08:55.551Z,43.58
2022-12-26T00:11:24.579Z,43.44
2022-12-26T00:13:55.785Z,43.58
2022-12-26T00:16:24.880Z,43.52
2022-12-26T00:18:53.439Z,43.50
2022-12-26T00:21:22.546Z,43.41
2022-12-26T00:23:51.904Z,43.45
2022-12-26T00:26:21.907Z,43.59
2022-12-26T00:28:50.407Z,43.55
2022-12-26T00:31:21.300Z,43.49
2022-12-26T00:33:50.006Z,43.59
2022-12-26T00:36:21.246Z,43.56
2022-12-26T00:38:51.719Z,43.60
2022-12-26T00:41:21.957Z,43.67
2022-12-26T00:43:50.277Z,43.57
2022-12-26T00:46:20.927Z,43.63
2022-12-26T00:48:49.608Z,43.62
2022-12-26T00:51:18.333Z,43.76
2022-12-26T00:53:46.524Z,43.57
2022-12-26T00:56:16.324Z,43.68
2022-12-26T00:58:44.576Z,43.75
2022-12-26T01:01:17.012Z,43.70
2022-12-26T01:03:46.204Z,43.78
2022-12-26T01:06:17.626Z,43.77
2022-12-26T01:08:46.078Z,43.66
2022-12-26T01:11:37.103Z,43.74
2022-12-26T01:14:05.497Z,44.00
2022-12-26T01:16:33.776Z,43.99
2022-12-26T01:19:01.826Z,44.36
2022-12-26T01:21:29.771Z,44.51
2022-12-26T01:23:57.745Z,44.50
2022-12-26T01:26:27.117Z,44.07
2022-12-26T01:28:55.212Z,44.41
2022-12-26T01:31:24.597Z,44.65
2022-12-26T01:33:52.654Z,44.44
2022-12-26T01:36:20.726Z,44.55
2022-12-26T01:38:48.976Z,44.53
2022-12-26T01:41:20.974Z,44.37
2022-12-26T01:43:59.160Z,44.10
2022-12-26T01:46:32.084Z,44.30
2022-12-26T01:49:03.505Z,44.28
2022-12-26T01:51:37.958Z,44.22
2022-12-26T01:54:40.572Z,44.19
2022-12-26T01:56:57.505Z,44.18
2022-12-26T01:59:30.204Z,44.28
2022-12-26T02:02:00.528Z,44.23
2022-12-26T02:04:50.060Z,44.26
2022-12-26T02:07:18.661Z,44.14
2022-12-26T02:09:46.671Z,44.06
2022-12-26T02:12:36.676Z,44.18
2022-12-26T02:15:11.500Z,43.99
2022-12-26T02:17:40.201Z,44.19
2022-12-26T02:20:18.686Z,44.07
2022-12-26T02:23:30.379Z,44.24
2022-12-26T02:26:33.375Z,44.14
2022-12-26T02:29:55.803Z,44.31
2022-12-26T02:32:33.928Z,44.26
2022-12-26T02:35:09.144Z,44.20
2022-12-26T02:37:52.479Z,44.27
2022-12-26T02:40:42.775Z,44.23
2022-12-26T02:43:22.888Z,44.23
2022-12-26T02:46:21.132Z,44.02
2022-12-26T02:48:59.185Z,44.19
2022-12-26T02:51:57.324Z,44.05
2022-12-26T02:54:47.893Z,44.07
2022-12-26T02:57:38.562Z,44.19
2022-12-26T03:00:26.937Z,44.21
2022-12-26T03:03:18.373Z,44.19
2022-12-26T03:06:16.857Z,44.17
2022-12-26T03:09:07.053Z,44.16
2022-12-26T03:11:58.354Z,44.16
2022-12-26T03:14:29.975Z,44.10
2022-12-26T03:17:20.954Z,44.16
2022-12-26T03:20:02.800Z,44.24
2022-12-26T03:22:38.370Z,44.20
2022-12-26T03:25:26.400Z,44.29
2022-12-26T03:27:55.552Z,44.14
2022-12-26T03:30:41.630Z,44.09
2022-12-26T03:33:30.612Z,44.20
2022-12-26T03:35:58.718Z,44.21
2022-12-26T03:38:35.849Z,44.06
2022-12-26T03:41:26.966Z,44.24
2022-12-26T03:44:38.822Z,44.06
2022-12-26T03:47:36.122Z,43.96
2022-12-26T03:50:29.528Z,44.09
2022-12-26T03:53:21.809Z,44.01
2022-12-26T03:56:13.847Z,44.25
2022-12-26T03:59:08.615Z,44.16
2022-12-26T04:01:58.346Z,44.09
2022-12-26T04:04:49.125Z,44.08
2022-12-26T04:07:56.457Z,44.23
2022-12-26T04:10:58.989Z,44.19
2022-12-26T04:13:50.509Z,44.21
2022-12-26T04:16:41.592Z,44.10
2022-12-26T04:19:27.874Z,44.14
2022-12-26T04:22:18.565Z,44.14
2022-12-26T04:25:09.436Z,44.21
2022-12-26T04:27:55.199Z,44.04
2022-12-26T04:30:41.962Z,44.10
2022-12-26T04:33:34.184Z,44.25
2022-12-26T04:36:26.526Z,44.22
2022-12-26T04:39:15.655Z,44.08
2022-12-26T04:42:03.393Z,44.16
2022-12-26T04:44:33.035Z,44.18
2022-12-26T04:47:02.624Z,44.23
2022-12-26T04:49:47.733Z,44.15
2022-12-26T04:52:16.399Z,44.19
2022-12-26T04:54:46.631Z,44.18
2022-12-26T04:57:14.675Z,44.34
2022-12-26T04:59:42.660Z,44.12
2022-12-26T05:02:29.810Z,44.25
2022-12-26T05:05:15.343Z,44.19
2022-12-26T05:08:00.991Z,44.12
2022-12-26T05:10:29.700Z,44.31
2022-12-26T05:12:57.688Z,44.12
2022-12-26T05:15:25.741Z,43.87
2022-12-26T05:18:14.105Z,44.04
2022-12-26T05:20:59.285Z,44.08
2022-12-26T05:23:47.024Z,44.09
2022-12-26T05:26:37.365Z,44.09
2022-12-26T05:29:05.901Z,44.18
2022-12-26T05:31:37.342Z,44.14
2022-12-26T05:34:06.068Z,43.98
2022-12-26T05:36:38.774Z,44.09
2022-12-26T05:39:07.216Z,44.01
2022-12-26T05:41:35.656Z,44.07
2022-12-26T05:44:03.678Z,44.02
2022-12-26T05:46:31.725Z,44.05
2022-12-26T05:49:03.906Z,44.08
2022-12-26T05:51:33.670Z,43.94
2022-12-26T05:54:02.278Z,43.93
2022-12-26T05:56:30.536Z,44.03
2022-12-26T05:59:00.885Z,44.06
2022-12-26T06:01:30.941Z,43.99
2022-12-26T06:04:01.265Z,43.97
2022-12-26T06:06:29.989Z,44.11
2022-12-26T06:08:59.620Z,43.94
2022-12-26T06:11:28.085Z,43.87
2022-12-26T06:13:56.414Z,43.99
2022-12-26T06:16:25.023Z,43.91
2022-12-26T06:18:54.991Z,44.10
2022-12-26T06:21:26.383Z,44.01
2022-12-26T06:23:54.495Z,43.97
2022-12-26T06:26:23.960Z,43.80
2022-12-26T06:28:52.106Z,43.76
2022-12-26T06:31:22.888Z,43.73
2022-12-26T06:33:52.384Z,43.90
2022-12-26T06:36:23.941Z,43.89
2022-12-26T06:38:52.856Z,43.88
2022-12-26T06:41:23.945Z,43.81
2022-12-26T06:43:52.718Z,43.84
2022-12-26T06:46:25.866Z,43.78
2022-12-26T06:48:54.551Z,43.91
2022-12-26T06:51:24.493Z,43.77
2022-12-26T06:53:54.308Z,43.86
2022-12-26T06:56:25.781Z,43.92
2022-12-26T06:58:54.990Z,43.83
2022-12-26T07:01:23.900Z,43.98
2022-12-26T07:03:53.554Z,43.79
2022-12-26T07:06:25.155Z,43.78
2022-12-26T07:08:55.779Z,43.73
2022-12-26T07:11:27.000Z,43.86
2022-12-26T07:13:56.115Z,43.85
2022-12-26T07:16:24.993Z,43.91
2022-12-26T07:18:53.638Z,43.79
2022-12-26T07:21:22.361Z,43.68
2022-12-26T07:23:50.670Z,43.83
2022-12-26T07:26:19.244Z,43.87
2022-12-26T07:28:49.114Z,43.86
2022-12-26T07:31:18.040Z,43.84
2022-12-26T07:33:48.681Z,43.81
2022-12-26T07:36:16.952Z,43.80
2022-12-26T07:38:44.949Z,43.69
2022-12-26T07:41:30.187Z,43.80
2022-12-26T07:43:59.560Z,43.78
2022-12-26T07:46:27.758Z,43.78
2022-12-26T07:48:55.828Z,43.83
2022-12-26T07:51:23.820Z,43.74
2022-12-26T07:53:51.853Z,43.76
2022-12-26T07:56:19.810Z,43.75
2022-12-26T07:58:49.638Z,43.66
2022-12-26T08:01:19.853Z,43.75
2022-12-26T08:03:49.435Z,43.82
2022-12-26T08:06:17.568Z,43.75
2022-12-26T08:08:50.536Z,43.64
2022-12-26T08:11:21.477Z,43.79
2022-12-26T08:13:52.616Z,43.80
2022-12-26T08:16:22.185Z,43.66
2022-12-26T08:18:52.997Z,43.77
2022-12-26T08:21:21.056Z,43.83
2022-12-26T08:23:49.226Z,43.76
2022-12-26T08:26:22.489Z,43.71
2022-12-26T08:28:51.929Z,43.87
2022-12-26T08:31:21.720Z,43.68
2022-12-26T08:33:49.901Z,43.61
2022-12-26T08:36:20.116Z,43.76
2022-12-26T08:38:48.173Z,43.67
2022-12-26T08:41:17.679Z,43.73
2022-12-26T08:46:39.259Z,43.62
2022-12-26T08:49:07.292Z,43.81
2022-12-26T08:51:35.747Z,43.78
2022-12-26T08:54:03.896Z,43.69
2022-12-26T08:56:32.092Z,43.69
2022-12-26T08:59:00.037Z,43.84
2022-12-26T09:01:30.270Z,43.71
2022-12-26T09:04:02.092Z,43.94
2022-12-26T09:06:32.669Z,43.72
2022-12-26T09:09:01.067Z,43.80
2022-12-26T09:11:29.633Z,43.71
2022-12-26T09:13:59.884Z,43.92
2022-12-26T09:16:35.622Z,43.73
2022-12-26T09:19:07.785Z,43.91
2022-12-26T09:21:35.775Z,43.78
2022-12-26T09:24:07.244Z,44.03
2022-12-26T09:26:35.344Z,43.74
2022-12-26T09:29:04.140Z,43.78
2022-12-26T09:31:36.925Z,43.87
2022-12-26T09:34:07.809Z,43.67
2022-12-26T09:36:38.799Z,43.54
2022-12-26T09:39:07.865Z,43.90
2022-12-26T09:41:58.460Z,43.84
2022-12-26T09:44:36.819Z,43.82
2022-12-26T09:47:16.308Z,43.78
2022-12-26T09:49:55.154Z,43.84
2022-12-26T09:52:28.322Z,43.78
2022-12-26T09:55:01.551Z,43.93
2022-12-26T09:57:37.456Z,43.72
2022-12-26T10:00:17.554Z,43.89
2022-12-26T10:02:49.660Z,43.88
2022-12-26T10:05:19.260Z,43.76
2022-12-26T10:07:52.789Z,43.98
2022-12-26T10:10:27.507Z,44.29
2022-12-26T10:13:06.142Z,44.03
2022-12-26T10:15:44.483Z,44.49
2022-12-26T10:18:30.230Z,44.59
2022-12-26T10:21:17.224Z,45.02
2022-12-26T10:23:46.955Z,44.91
2022-12-26T10:26:19.288Z,44.99
2022-12-26T10:28:50.662Z,45.03
2022-12-26T10:31:23.773Z,44.84
2022-12-26T10:33:57.281Z,45.10
2022-12-26T10:36:33.725Z,44.90
2022-12-26T10:39:04.597Z,44.99
2022-12-26T10:41:38.947Z,44.79
2022-12-26T10:44:12.662Z,44.87
2022-12-26T10:47:05.927Z,45.01
2022-12-26T10:49:33.930Z,44.82
2022-12-26T10:52:04.204Z,45.17
2022-12-26T10:54:33.280Z,45.12
2022-12-26T10:57:03.045Z,45.12
2022-12-26T10:59:41.500Z,45.17
2022-12-26T11:02:16.756Z,45.37
2022-12-26T11:05:16.032Z,45.38
2022-12-26T11:07:56.027Z,45.39
2022-12-26T11:10:27.609Z,45.27
2022-12-26T11:12:57.687Z,45.38
2022-12-26T11:15:32.147Z,45.41
2022-12-26T11:18:16.066Z,45.27
2022-12-26T11:20:45.383Z,45.34
2022-12-26T11:23:24.180Z,45.38
2022-12-26T11:25:54.949Z,45.39
2022-12-26T11:28:29.730Z,45.35
2022-12-26T11:30:58.457Z,45.27
2022-12-26T11:33:30.451Z,45.38
2022-12-26T11:36:11.722Z,45.42
2022-12-26T11:38:54.330Z,45.48
2022-12-26T11:41:39.879Z,45.22
2022-12-26T11:44:20.643Z,45.32
2022-12-26T11:46:52.585Z,45.55
2022-12-26T11:49:26.335Z,45.52
2022-12-26T11:51:59.161Z,45.46
2022-12-26T11:54:49.488Z,45.27
2022-12-26T11:57:22.266Z,45.32
2022-12-26T11:59:52.673Z,45.40
2022-12-26T12:02:27.861Z,45.52
2022-12-26T12:05:00.137Z,45.47
2022-12-26T12:07:38.185Z,45.48
2022-12-26T12:10:31.398Z,45.40
2022-12-26T12:13:10.973Z,45.52
2022-12-26T12:15:45.500Z,45.29
2022-12-26T12:18:21.366Z,45.19
2022-12-26T12:21:00.851Z,45.14
2022-12-26T12:23:47.173Z,45.23
2022-12-26T12:26:21.538Z,45.27
2022-12-26T12:29:17.617Z,45.27
2022-12-26T12:31:58.731Z,45.33
2022-12-26T12:34:37.888Z,45.11
2022-12-26T12:37:20.995Z,45.37
2022-12-26T12:39:59.748Z,45.20
2022-12-26T12:42:41.487Z,44.96
2022-12-26T12:45:27.190Z,44.94
2022-12-26T12:48:09.674Z,45.03
2022-12-26T12:50:45.917Z,45.02
2022-12-26T12:53:27.786Z,45.02
2022-12-26T12:56:16.783Z,45.23
2022-12-26T12:58:57.586Z,45.09
2022-12-26T13:01:29.607Z,45.28
2022-12-26T13:04:06.657Z,44.96
2022-12-26T13:06:39.843Z,45.24
2022-12-26T13:09:13.716Z,45.22
2022-12-26T13:11:46.646Z,45.13
2022-12-26T13:14:21.753Z,45.05
2022-12-26T13:16:55.218Z,45.03
2022-12-26T13:19:26.619Z,44.96
2022-12-26T13:22:01.813Z,45.05
2022-12-26T13:24:34.232Z,45.31
2022-12-26T13:27:08.695Z,45.20
2022-12-26T13:29:40.460Z,44.97
2022-12-26T13:32:19.269Z,45.00
2022-12-26T13:34:48.292Z,44.97
2022-12-26T13:37:56.584Z,44.77
2022-12-26T13:40:28.813Z,44.92
2022-12-26T13:43:15.868Z,44.99
2022-12-26T13:45:56.532Z,44.70
2022-12-26T13:49:08.136Z,44.67
2022-12-26T13:51:58.212Z,44.67
2022-12-26T13:54:28.993Z,44.66
2022-12-26T13:57:28.088Z,44.40
2022-12-26T14:00:15.821Z,44.40
2022-12-26T14:03:21.739Z,44.35
2022-12-26T14:06:08.166Z,44.68
2022-12-26T14:08:52.998Z,45.03
2022-12-26T14:11:43.144Z,44.92
2022-12-26T14:14:23.703Z,45.42
2022-12-26T14:17:05.587Z,45.40
2022-12-26T14:19:47.650Z,44.93
2022-12-26T14:22:27.824Z,44.91
2022-12-26T14:25:05.985Z,44.90
2022-12-26T14:27:41.921Z,44.80
2022-12-26T14:30:23.816Z,44.66
2022-12-26T14:33:16.030Z,44.49
2022-12-26T14:36:09.120Z,44.21
2022-12-26T14:38:45.848Z,44.24
2022-12-26T14:41:29.996Z,43.98
2022-12-26T14:43:58.607Z,44.06
2022-12-26T14:47:02.918Z,43.89
2022-12-26T14:49:42.123Z,43.77
2022-12-26T14:52:43.353Z,43.85
2022-12-26T14:55:56.883Z,43.73
2022-12-26T14:58:43.865Z,43.62
2022-12-26T15:01:51.240Z,43.57
2022-12-26T15:04:48.562Z,43.47
2022-12-26T15:07:44.311Z,43.43
2022-12-26T15:10:32.557Z,43.32
2022-12-26T15:13:33.217Z,43.27
2022-12-26T15:16:17.327Z,42.95
2022-12-26T15:19:28.623Z,42.86
2022-12-26T15:22:26.812Z,42.88
2022-12-26T15:25:19.203Z,42.71
2022-12-26T15:28:15.420Z,42.68
2022-12-26T15:31:14.209Z,42.54
2022-12-26T15:33:47.760Z,42.57
2022-12-26T15:36:28.955Z,42.45
2022-12-26T15:39:02.915Z,42.61
2022-12-26T15:41:40.282Z,42.73
2022-12-26T15:44:25.882Z,42.66
2022-12-26T15:47:05.856Z,42.55
2022-12-26T15:49:51.241Z,42.74
2022-12-26T15:52:29.263Z,42.81
2022-12-26T15:55:13.454Z,42.83
2022-12-26T15:57:51.604Z,42.88
2022-12-26T16:00:24.114Z,42.93
2022-12-26T16:03:07.872Z,42.94
2022-12-26T16:05:46.959Z,43.00
2022-12-26T16:08:44.072Z,43.38
2022-12-26T16:11:18.955Z,43.24
2022-12-26T16:13:56.042Z,43.29
2022-12-26T16:16:34.942Z,43.53
2022-12-26T16:19:17.302Z,43.44
2022-12-26T16:22:07.503Z,43.59
2022-12-26T16:24:37.723Z,43.66
2022-12-26T16:27:08.439Z,43.74
2022-12-26T16:29:46.024Z,43.60
2022-12-26T16:32:19.265Z,43.53
2022-12-26T16:34:48.318Z,43.87
2022-12-26T16:37:20.253Z,43.67
2022-12-26T16:40:16.026Z,43.78
2022-12-26T16:42:45.796Z,43.74
2022-12-26T16:45:19.760Z,43.71
2022-12-26T16:47:49.902Z,43.71
2022-12-26T16:50:20.361Z,43.75
2022-12-26T16:52:50.758Z,43.73
2022-12-26T16:55:34.874Z,43.71
2022-12-26T16:58:05.398Z,43.60
2022-12-26T17:00:34.774Z,43.66
2022-12-26T17:03:10.724Z,44.08
2022-12-26T17:05:42.757Z,43.88
2022-12-26T17:08:14.464Z,43.67
2022-12-26T17:10:48.831Z,43.63
2022-12-26T17:13:22.645Z,43.79
2022-12-26T17:15:56.889Z,44.03
2022-12-26T17:18:42.154Z,43.83
2022-12-26T17:21:24.561Z,43.92
2022-12-26T17:24:10.751Z,44.04
2022-12-26T17:26:40.513Z,45.30
2022-12-26T17:29:52.839Z,45.84
2022-12-26T17:32:34.147Z,45.42
2022-12-26T17:35:08.006Z,45.27
2022-12-26T17:37:36.309Z,45.29
2022-12-26T17:40:19.448Z,45.19
2022-12-26T17:42:51.134Z,45.12
2022-12-26T17:45:22.438Z,45.10
2022-12-26T17:47:51.843Z,45.01
2022-12-26T17:50:23.339Z,44.96
2022-12-26T17:52:52.234Z,44.98
2022-12-26T17:55:24.982Z,44.88
2022-12-26T17:57:53.846Z,45.03
2022-12-26T18:00:24.743Z,45.03
2022-12-26T18:02:53.356Z,44.85
2022-12-26T18:05:22.865Z,44.56
2022-12-26T18:07:52.964Z,44.89
2022-12-26T18:10:22.965Z,44.76
2022-12-26T18:12:51.652Z,44.29
2022-12-26T18:15:20.831Z,44.26
2022-12-26T18:17:50.880Z,44.16
2022-12-26T18:20:21.067Z,44.01
2022-12-26T18:22:51.420Z,43.82
2022-12-26T18:25:21.639Z,43.68
2022-12-26T18:27:51.262Z,43.66
2022-12-26T18:30:21.983Z,43.38
2022-12-26T18:32:51.658Z,43.47
2022-12-26T18:35:20.135Z,43.45
2022-12-26T18:37:52.226Z,42.99
2022-12-26T18:40:29.829Z,42.55
2022-12-26T18:43:00.320Z,42.90
2022-12-26T18:45:28.382Z,42.75
2022-12-26T18:47:56.748Z,42.86
2022-12-26T18:50:25.186Z,42.80
2022-12-26T18:52:55.022Z,42.80
2022-12-26T18:55:23.244Z,42.68
2022-12-26T18:57:51.402Z,42.99
2022-12-26T19:00:20.742Z,42.73
2022-12-26T19:02:49.271Z,42.66
2022-12-26T19:05:19.728Z,42.56
2022-12-26T19:07:50.762Z,42.41
2022-12-26T19:10:21.872Z,42.38
2022-12-26T19:12:52.988Z,42.55
2022-12-26T19:15:21.128Z,42.42
2022-12-26T19:17:49.255Z,42.42
2022-12-26T19:20:20.496Z,42.54
2022-12-26T19:22:50.098Z,42.51
2022-12-26T19:25:20.751Z,42.63
2022-12-26T19:27:49.669Z,42.37
2022-12-26T19:30:19.642Z,42.21
2022-12-26T19:32:47.716Z,42.33
2022-12-26T19:35:17.138Z,42.25
2022-12-26T19:37:45.607Z,42.40
2022-12-26T19:40:22.937Z,42.37
2022-12-26T19:42:54.383Z,42.27
2022-12-26T19:45:22.637Z,41.98
2022-12-26T19:47:50.567Z,42.22
2022-12-26T19:50:18.641Z,42.16
2022-12-26T19:52:46.588Z,42.04
2022-12-26T19:55:14.551Z,41.96
2022-12-26T19:57:45.435Z,42.15
2022-12-26T20:00:15.338Z,41.95
2022-12-26T20:02:43.547Z,41.96
2022-12-26T20:05:11.654Z,41.78
2022-12-26T20:07:39.834Z,41.86
2022-12-26T20:10:08.288Z,41.52
2022-12-26T20:12:36.317Z,41.54
2022-12-26T20:15:04.439Z,41.32
2022-12-26T20:17:36.411Z,41.42
2022-12-26T20:20:04.669Z,41.15
2022-12-26T20:22:33.266Z,41.19
2022-12-26T20:25:04.170Z,41.11
2022-12-26T20:27:33.051Z,41.01
2022-12-26T20:30:01.022Z,40.96
2022-12-26T20:32:29.127Z,40.96
2022-12-26T20:34:58.771Z,40.95
2022-12-26T20:37:27.075Z,40.81
2022-12-26T20:39:55.072Z,40.77
2022-12-26T20:42:23.083Z,40.69
2022-12-26T20:44:51.130Z,40.68
2022-12-26T20:47:19.593Z,40.55
2022-12-26T20:49:47.561Z,40.57
2022-12-26T20:52:18.573Z,40.54
2022-12-26T20:54:46.914Z,40.33
2022-12-26T20:57:14.873Z,40.25
2022-12-26T20:59:42.922Z,40.44
2022-12-26T21:02:12.558Z,40.20
2022-12-26T21:04:40.795Z,40.14
2022-12-26T21:07:08.844Z,40.07
2022-12-26T21:09:45.700Z,39.95
2022-12-26T21:12:14.136Z,40.05
2022-12-26T21:14:42.266Z,40.00
2022-12-26T21:17:10.298Z,39.89
2022-12-26T21:19:38.564Z,39.93
2022-12-26T21:22:06.561Z,39.69
2022-12-26T21:24:34.579Z,39.72
2022-12-26T21:27:04.331Z,39.87
2022-12-26T21:29:34.534Z,39.74
2022-12-26T21:32:03.995Z,39.58
2022-12-26T21:34:33.972Z,39.65
2022-12-26T21:37:19.655Z,39.67
2022-12-26T21:39:49.599Z,39.38
2022-12-26T21:42:19.673Z,39.21
2022-12-26T21:44:47.738Z,39.48
2022-12-26T21:47:15.830Z,39.38
2022-12-26T21:49:43.783Z,39.32
2022-12-26T21:52:12.216Z,39.22
2022-12-26T21:54:57.899Z,39.20
2022-12-26T21:57:27.313Z,39.09
2022-12-26T21:59:58.418Z,39.20
2022-12-26T22:02:46.367Z,39.05
2022-12-26T22:05:15.058Z,39.01
2022-12-26T22:07:43.256Z,39.00
2022-12-26T22:10:32.614Z,39.10
2022-12-26T22:13:02.167Z,39.01
2022-12-26T22:15:47.523Z,39.18
2022-12-26T22:18:15.927Z,39.20
2022-12-26T22:20:44.922Z,39.47
2022-12-26T22:23:13.758Z,39.28
2022-12-26T22:25:41.773Z,39.15
2022-12-26T22:28:11.372Z,39.17
2022-12-26T22:30:39.316Z,39.12
2022-12-26T22:33:07.251Z,39.09
2022-12-26T22:35:35.233Z,38.97
2022-12-26T22:38:03.193Z,38.63
2022-12-26T22:40:31.178Z,38.77
2022-12-26T22:42:59.193Z,38.70
2022-12-26T22:45:28.566Z,38.74
2022-12-26T22:47:56.572Z,38.62
2022-12-26T22:50:24.741Z,38.78
2022-12-26T22:52:53.048Z,38.49
2022-12-26T22:55:21.012Z,38.67
2022-12-26T22:57:52.690Z,38.47
2022-12-26T23:00:21.063Z,38.58
2022-12-26T23:02:52.849Z,38.63
2022-12-26T23:05:21.505Z,38.55
2022-12-26T23:07:49.919Z,38.63
2022-12-26T23:10:21.367Z,38.90
2022-12-26T23:12:50.028Z,38.81
2022-12-26T23:15:20.730Z,38.61
2022-12-26T23:18:12.198Z,38.43
2022-12-26T23:20:58.373Z,38.55
2022-12-26T23:23:27.180Z,38.70
2022-12-26T23:25:55.585Z,38.53
2022-12-26T23:28:40.886Z,38.48
2022-12-26T23:31:09.172Z,38.51
2022-12-26T23:33:38.516Z,38.48
2022-12-26T23:36:07.045Z,38.30
2022-12-26T23:38:37.268Z,38.26
2022-12-26T23:41:05.409Z,38.46
2022-12-26T23:43:34.538Z,38.37
2022-12-26T23:46:02.524Z,38.24
2022-12-26T23:48:30.565Z,38.42
2022-12-26T23:51:03.998Z,38.23
2022-12-26T23:53:34.667Z,38.38
2022-12-26T23:56:02.709Z,38.00
2022-12-26T23:58:30.704Z,38.00
